createdAt,value
2023-02-07T00:01:42.368Z,102590.63
2023-02-07T00:04:09.070Z,102599.53
2023-02-07T00:06:36.280Z,102601.53
2023-02-07T00:09:03.832Z,102605.88
2023-02-07T00:11:30.641Z,102609.19
2023-02-07T00:13:57.828Z,102607.00
2023-02-07T00:16:26.328Z,102608.25
2023-02-07T00:18:53.407Z,102615.72
2023-02-07T00:21:23.725Z,102620.97
2023-02-07T00:23:51.074Z,102616.47
2023-02-07T00:26:18.114Z,102617.91
2023-02-07T00:28:45.889Z,102615.91
2023-02-07T00:31:14.117Z,102613.19
2023-02-07T00:33:41.260Z,102616.63
2023-02-07T00:36:10.768Z,102629.19
2023-02-07T00:38:37.560Z,102626.63
2023-02-07T00:41:04.751Z,102628.09
2023-02-07T00:43:34.121Z,102626.44
2023-02-07T00:46:02.161Z,102622.81
2023-02-07T00:48:29.831Z,102617.72
2023-02-07T00:50:56.591Z,102618.25
2023-02-07T00:53:26.140Z,102613.16
2023-02-07T00:55:55.336Z,102615.00
2023-02-07T00:58:22.306Z,102607.16
2023-02-07T01:00:48.952Z,102608.44
2023-02-07T01:03:15.827Z,102612.81
2023-02-07T01:05:44.764Z,102609.34
2023-02-07T01:08:11.457Z,102619.00
2023-02-07T01:10:41.544Z,102615.72
2023-02-07T01:13:09.777Z,102616.97
2023-02-07T01:15:37.823Z,102609.34
2023-02-07T01:18:04.865Z,102610.09
2023-02-07T01:20:31.480Z,102604.47
2023-02-07T01:22:58.064Z,102598.28
2023-02-07T01:25:24.717Z,102588.84
2023-02-07T01:27:51.386Z,102588.47
2023-02-07T01:30:18.212Z,102592.28
2023-02-07T01:32:47.269Z,102591.91
2023-02-07T01:35:14.505Z,102586.28
2023-02-07T01:37:41.128Z,102585.91
2023-02-07T01:40:08.107Z,102584.81
2023-02-07T01:42:37.112Z,102579.72
2023-02-07T01:45:06.635Z,102581.16
2023-02-07T01:47:35.853Z,102566.28
2023-02-07T01:50:02.528Z,102563.19
2023-02-07T01:52:31.247Z,102554.47
2023-02-07T01:54:59.134Z,102567.75
2023-02-07T01:57:25.759Z,102569.53
2023-02-07T01:59:53.614Z,102571.91
2023-02-07T02:02:21.943Z,102564.84
2023-02-07T02:04:49.301Z,102555.72
2023-02-07T02:07:16.167Z,102549.75
2023-02-07T02:09:43.677Z,102565.75
2023-02-07T02:12:10.435Z,102563.94
2023-02-07T02:14:55.810Z,102557.00
2023-02-07T02:17:25.989Z,102553.19
2023-02-07T02:20:11.437Z,102561.19
2023-02-07T02:22:56.501Z,102545.94
2023-02-07T02:25:42.722Z,102553.03
2023-02-07T02:28:28.720Z,102548.47
2023-02-07T02:31:17.123Z,102554.28
2023-02-07T02:33:55.217Z,102546.47
2023-02-07T02:36:48.231Z,102557.75
2023-02-07T02:39:18.064Z,102558.84
2023-02-07T02:41:47.712Z,102559.38
2023-02-07T02:44:16.312Z,102551.91
2023-02-07T02:46:45.318Z,102551.56
2023-02-07T02:49:12.355Z,102550.66
2023-02-07T02:51:39.185Z,102546.63
2023-02-07T02:54:25.081Z,102555.38
2023-02-07T02:57:10.789Z,102545.72
2023-02-07T02:59:57.036Z,102544.06
2023-02-07T03:02:44.299Z,102550.44
2023-02-07T03:05:29.907Z,102554.81
2023-02-07T03:08:15.388Z,102558.06
2023-02-07T03:10:45.214Z,102562.75
2023-02-07T03:13:11.813Z,102560.06
2023-02-07T03:15:58.279Z,102558.06
2023-02-07T03:18:31.265Z,102556.09
2023-02-07T03:21:01.481Z,102554.25
2023-02-07T03:23:30.592Z,102563.72
2023-02-07T03:25:59.304Z,102563.53
2023-02-07T03:28:26.045Z,102557.16
2023-02-07T03:30:52.791Z,102556.63
2023-02-07T03:33:22.447Z,102560.97
2023-02-07T03:35:58.278Z,102567.69
2023-02-07T03:38:24.944Z,102566.06
2023-02-07T03:40:53.302Z,102551.91
2023-02-07T03:43:24.608Z,102555.72
2023-02-07T03:45:51.475Z,102548.47
2023-02-07T03:48:18.287Z,102555.34
2023-02-07T03:50:45.147Z,102552.81
2023-02-07T03:53:14.029Z,102557.53
2023-02-07T03:55:40.840Z,102553.84
2023-02-07T03:58:08.650Z,102554.09
2023-02-07T04:00:35.591Z,102551.69
2023-02-07T04:03:02.601Z,102546.84
2023-02-07T04:05:29.175Z,102541.78
2023-02-07T04:07:55.962Z,102534.56
2023-02-07T04:10:25.033Z,102529.66
2023-02-07T04:12:54.099Z,102548.06
2023-02-07T04:15:23.574Z,102551.03
2023-02-07T04:17:53.030Z,102551.34
2023-02-07T04:20:22.158Z,102556.66
2023-02-07T04:22:51.281Z,102546.56
2023-02-07T04:25:18.794Z,102543.16
2023-02-07T04:27:45.538Z,102539.41
2023-02-07T04:30:12.289Z,102525.09
2023-02-07T04:32:39.284Z,102520.56
2023-02-07T04:35:06.057Z,102519.31
2023-02-07T04:37:32.681Z,102521.16
2023-02-07T04:40:01.665Z,102532.75
2023-02-07T04:42:28.426Z,102538.88
2023-02-07T04:44:59.957Z,102546.47
2023-02-07T04:47:26.505Z,102538.16
2023-02-07T04:49:53.410Z,102545.97
2023-02-07T04:52:22.401Z,102552.53
2023-02-07T04:54:51.502Z,102560.69
2023-02-07T04:57:18.138Z,102558.53
2023-02-07T04:59:49.440Z,102563.59
2023-02-07T05:02:16.067Z,102577.75
2023-02-07T05:04:42.718Z,102578.84
2023-02-07T05:07:12.382Z,102586.44
2023-02-07T05:09:39.109Z,102593.25
2023-02-07T05:12:05.928Z,102588.81
2023-02-07T05:14:32.659Z,102595.56
2023-02-07T05:17:01.763Z,102598.47
2023-02-07T05:19:28.486Z,102604.06
2023-02-07T05:21:55.181Z,102608.28
2023-02-07T05:24:21.844Z,102606.69
2023-02-07T05:26:48.587Z,102609.28
2023-02-07T05:29:18.043Z,102608.53
2023-02-07T05:32:05.241Z,102610.84
2023-02-07T05:34:35.849Z,102601.97
2023-02-07T05:37:02.669Z,102600.31
2023-02-07T05:39:29.336Z,102609.03
2023-02-07T05:42:01.380Z,102603.06
2023-02-07T05:44:30.777Z,102605.78
2023-02-07T05:47:00.428Z,102608.84
2023-02-07T05:49:29.646Z,102616.81
2023-02-07T05:51:59.053Z,102618.06
2023-02-07T05:54:28.548Z,102622.66
2023-02-07T05:56:55.140Z,102618.66
2023-02-07T05:59:21.757Z,102614.31
2023-02-07T06:01:51.001Z,102612.69
2023-02-07T06:04:20.230Z,102611.63
2023-02-07T06:06:48.938Z,102613.44
2023-02-07T06:09:18.695Z,102610.38
2023-02-07T06:11:50.196Z,102614.00
2023-02-07T06:14:16.889Z,102608.97
2023-02-07T06:16:43.733Z,102614.94
2023-02-07T06:19:11.297Z,102614.41
2023-02-07T06:21:46.467Z,102610.09
2023-02-07T06:24:16.309Z,102613.91
2023-02-07T06:26:43.398Z,102606.28
2023-02-07T06:29:12.505Z,102606.47
2023-02-07T06:31:39.117Z,102609.97
2023-02-07T06:34:06.189Z,102601.09
2023-02-07T06:36:32.799Z,102600.88
2023-02-07T06:38:59.506Z,102607.88
2023-02-07T06:41:26.201Z,102593.69
2023-02-07T06:43:52.828Z,102587.34
2023-02-07T06:46:25.006Z,102585.41
2023-02-07T06:48:54.245Z,102581.53
2023-02-07T06:51:23.800Z,102587.06
2023-02-07T06:53:54.129Z,102589.28
2023-02-07T06:56:20.768Z,102595.09
2023-02-07T06:58:52.273Z,102590.06
2023-02-07T07:01:22.831Z,102585.06
2023-02-07T07:03:51.958Z,102578.00
2023-02-07T07:06:21.547Z,102579.66
2023-02-07T07:08:48.295Z,102583.69
2023-02-07T07:11:14.897Z,102585.50
2023-02-07T07:13:41.565Z,102585.19
2023-02-07T07:16:08.312Z,102587.00
2023-02-07T07:18:39.855Z,102575.38
2023-02-07T07:21:07.293Z,102585.00
2023-02-07T07:23:33.892Z,102579.72
2023-02-07T07:26:02.846Z,102579.38
2023-02-07T07:28:29.538Z,102580.44
2023-02-07T07:31:01.620Z,102581.16
2023-02-07T07:33:30.653Z,102580.44
2023-02-07T07:35:57.924Z,102587.69
2023-02-07T07:38:24.629Z,102589.53
2023-02-07T07:40:53.739Z,102589.16
2023-02-07T07:43:20.515Z,102588.41
2023-02-07T07:45:52.572Z,102595.31
2023-02-07T07:48:19.550Z,102595.47
2023-02-07T07:50:46.172Z,102585.63
2023-02-07T07:53:12.779Z,102581.22
2023-02-07T07:55:39.427Z,102581.53
2023-02-07T07:58:08.570Z,102590.06
2023-02-07T08:00:35.346Z,102583.16
2023-02-07T08:03:04.542Z,102582.00
2023-02-07T08:05:33.508Z,102583.78
2023-02-07T08:08:00.165Z,102572.03
2023-02-07T08:10:26.888Z,102569.22
2023-02-07T08:12:55.904Z,102568.97
2023-02-07T08:15:22.526Z,102570.47
2023-02-07T08:17:54.839Z,102564.94
2023-02-07T08:20:21.535Z,102570.72
2023-02-07T08:22:48.187Z,102575.16
2023-02-07T08:25:14.738Z,102569.25
2023-02-07T08:27:41.568Z,102577.13
2023-02-07T08:30:08.838Z,102576.84
2023-02-07T08:32:35.547Z,102573.22
2023-02-07T08:35:02.220Z,102575.13
2023-02-07T08:37:28.926Z,102572.84
2023-02-07T08:39:58.394Z,102571.00
2023-02-07T08:42:25.065Z,102578.38
2023-02-07T08:44:52.014Z,102577.88
2023-02-07T08:47:19.097Z,102582.66
2023-02-07T08:49:45.786Z,102573.00
2023-02-07T08:52:12.416Z,102573.81
2023-02-07T08:54:39.150Z,102576.22
2023-02-07T08:57:05.722Z,102577.81
2023-02-07T08:59:32.430Z,102579.91
2023-02-07T09:02:01.484Z,102582.91
2023-02-07T09:04:31.029Z,102567.78
2023-02-07T09:07:00.711Z,102579.66
2023-02-07T09:09:27.357Z,102581.50
2023-02-07T09:11:54.158Z,102575.59
2023-02-07T09:14:20.840Z,102577.91
2023-02-07T09:16:47.485Z,102573.53
2023-02-07T09:19:16.261Z,102581.63
2023-02-07T09:21:45.280Z,102581.03
2023-02-07T09:24:12.298Z,102577.75
2023-02-07T09:26:40.993Z,102581.09
2023-02-07T09:29:11.527Z,102581.44
2023-02-07T09:31:40.969Z,102585.38
2023-02-07T09:34:09.963Z,102581.84
2023-02-07T09:36:38.777Z,102586.09
2023-02-07T09:39:05.924Z,102580.47
2023-02-07T09:41:38.567Z,102578.13
2023-02-07T09:44:21.046Z,102570.75
2023-02-07T09:46:55.023Z,102569.50
2023-02-07T09:49:23.799Z,102564.19
2023-02-07T09:51:51.038Z,102562.47
2023-02-07T09:54:24.335Z,102565.66
2023-02-07T09:56:54.928Z,102554.44
2023-02-07T09:59:30.926Z,102558.06
2023-02-07T10:02:01.514Z,102554.28
2023-02-07T10:04:30.582Z,102554.59
2023-02-07T10:06:59.976Z,102545.44
2023-02-07T10:09:33.517Z,102546.09
2023-02-07T10:12:00.182Z,102538.53
2023-02-07T10:14:53.061Z,102537.88
2023-02-07T10:17:31.134Z,102535.38
2023-02-07T10:20:04.502Z,102538.56
2023-02-07T10:22:34.223Z,102534.19
2023-02-07T10:25:04.013Z,102541.22
2023-02-07T10:27:41.268Z,102528.53
2023-02-07T10:30:16.365Z,102526.72
2023-02-07T10:32:43.778Z,102529.84
2023-02-07T10:35:31.184Z,102534.41
2023-02-07T10:37:58.055Z,102527.75
2023-02-07T10:40:28.738Z,102527.81
2023-02-07T10:43:18.450Z,102516.72
2023-02-07T10:45:51.889Z,102514.63
2023-02-07T10:48:23.987Z,102509.44
2023-02-07T10:50:53.529Z,102516.28
2023-02-07T10:53:52.773Z,102510.91
2023-02-07T10:56:22.532Z,102514.53
2023-02-07T10:58:49.194Z,102510.13
2023-02-07T11:01:22.338Z,102509.66
2023-02-07T11:03:49.270Z,102507.06
2023-02-07T11:06:28.707Z,102502.66
2023-02-07T11:09:12.991Z,102503.00
2023-02-07T11:11:40.805Z,102503.13
2023-02-07T11:14:07.847Z,102500.31
2023-02-07T11:16:34.480Z,102496.97
2023-02-07T11:19:02.068Z,102494.47
2023-02-07T11:21:28.826Z,102497.47
2023-02-07T11:24:05.864Z,102504.53
2023-02-07T11:26:32.980Z,102491.41
2023-02-07T11:29:12.151Z,102491.09
2023-02-07T11:31:38.983Z,102488.19
2023-02-07T11:34:11.662Z,102485.16
2023-02-07T11:36:39.160Z,102482.56
2023-02-07T11:39:15.305Z,102473.81
2023-02-07T11:41:44.838Z,102470.91
2023-02-07T11:44:15.642Z,102473.63
2023-02-07T11:46:43.265Z,102475.00
2023-02-07T11:49:39.373Z,102468.22
2023-02-07T11:52:05.941Z,102471.25
2023-02-07T11:54:38.351Z,102463.06
2023-02-07T11:57:06.374Z,102466.78
2023-02-07T11:59:38.543Z,102463.16
2023-02-07T12:02:20.854Z,102459.81
2023-02-07T12:04:50.257Z,102454.50
2023-02-07T12:07:20.179Z,102452.03
2023-02-07T12:10:07.119Z,102448.81
2023-02-07T12:12:56.340Z,102442.44
2023-02-07T12:15:25.393Z,102446.63
2023-02-07T12:17:58.390Z,102444.84
2023-02-07T12:20:48.338Z,102442.25
2023-02-07T12:23:41.294Z,102429.69
2023-02-07T12:26:20.278Z,102429.06
2023-02-07T12:29:13.512Z,102430.75
2023-02-07T12:31:41.184Z,102427.75
2023-02-07T12:34:13.342Z,102427.34
2023-02-07T12:36:46.880Z,102425.50
2023-02-07T12:39:16.536Z,102418.41
2023-02-07T12:41:49.555Z,102416.69
2023-02-07T12:44:27.042Z,102420.81
2023-02-07T12:47:06.177Z,102423.97
2023-02-07T12:49:39.209Z,102415.09
2023-02-07T12:52:08.985Z,102412.91
2023-02-07T12:54:43.169Z,102408.38
2023-02-07T12:57:12.246Z,102422.44
2023-02-07T12:59:53.491Z,102422.94
2023-02-07T13:02:32.719Z,102416.03
2023-02-07T13:05:19.654Z,102410.88
2023-02-07T13:08:05.108Z,102419.06
2023-02-07T13:10:46.366Z,102413.38
2023-02-07T13:13:28.075Z,102415.25
2023-02-07T13:16:24.890Z,102411.91
2023-02-07T13:18:54.549Z,102407.91
2023-02-07T13:21:42.436Z,102408.91
2023-02-07T13:24:11.286Z,102408.53
2023-02-07T13:26:37.903Z,102407.53
2023-02-07T13:29:06.797Z,102405.22
2023-02-07T13:31:37.960Z,102412.91
2023-02-07T13:34:04.736Z,102412.91
2023-02-07T13:36:36.789Z,102412.97
2023-02-07T13:39:14.353Z,102407.38
2023-02-07T13:41:46.258Z,102407.72
2023-02-07T13:44:27.583Z,102409.47
2023-02-07T13:47:12.559Z,102395.31
2023-02-07T13:49:51.409Z,102402.34
2023-02-07T13:52:36.830Z,102403.72
2023-02-07T13:55:11.768Z,102406.28
2023-02-07T13:58:00.396Z,102400.44
2023-02-07T14:00:34.970Z,102398.50
2023-02-07T14:03:06.459Z,102400.19
2023-02-07T14:05:34.627Z,102402.88
2023-02-07T14:08:02.492Z,102389.41
2023-02-07T14:10:35.614Z,102391.13
2023-02-07T14:13:02.768Z,102398.47
2023-02-07T14:15:30.723Z,102394.09
2023-02-07T14:18:06.566Z,102394.16
2023-02-07T14:20:36.614Z,102391.09
2023-02-07T14:23:06.645Z,102394.78
2023-02-07T14:25:33.694Z,102394.69
2023-02-07T14:28:07.572Z,102394.56
2023-02-07T14:30:55.372Z,102405.66
2023-02-07T14:33:25.024Z,102403.38
2023-02-07T14:36:10.100Z,102406.19
2023-02-07T14:38:40.163Z,102407.16
2023-02-07T14:41:16.141Z,102406.72
2023-02-07T14:44:07.445Z,102401.38
2023-02-07T14:46:38.167Z,102417.09
2023-02-07T14:49:13.621Z,102418.00
2023-02-07T14:51:40.352Z,102423.59
2023-02-07T14:54:25.613Z,102422.13
2023-02-07T14:57:01.746Z,102427.47
2023-02-07T14:59:40.268Z,102423.34
2023-02-07T15:02:31.659Z,102429.19
2023-02-07T15:04:59.039Z,102435.47
2023-02-07T15:07:25.873Z,102437.19
2023-02-07T15:09:54.746Z,102438.81
2023-02-07T15:12:27.321Z,102438.06
2023-02-07T15:14:57.367Z,102439.44
2023-02-07T15:17:33.410Z,102441.34
2023-02-07T15:20:05.443Z,102444.09
2023-02-07T15:22:32.208Z,102440.25
2023-02-07T15:24:58.955Z,102447.31
2023-02-07T15:27:28.865Z,102452.00
2023-02-07T15:29:59.565Z,102454.97
2023-02-07T15:32:34.173Z,102460.88
2023-02-07T15:35:27.546Z,102454.97
2023-02-07T15:37:55.146Z,102465.38
2023-02-07T15:40:28.550Z,102457.19
2023-02-07T15:43:00.661Z,102458.84
2023-02-07T15:45:33.733Z,102463.59
2023-02-07T15:48:10.650Z,102472.56
2023-02-07T15:50:37.975Z,102471.22
2023-02-07T15:53:08.676Z,102465.06
2023-02-07T15:55:38.390Z,102472.72
2023-02-07T15:58:09.582Z,102471.66
2023-02-07T16:00:37.899Z,102485.88
2023-02-07T16:03:08.048Z,102481.13
2023-02-07T16:05:38.763Z,102481.75
2023-02-07T16:08:27.196Z,102488.16
2023-02-07T16:10:53.938Z,102487.97
2023-02-07T16:13:21.883Z,102485.72
2023-02-07T16:15:55.064Z,102483.50
2023-02-07T16:18:41.421Z,102488.06
2023-02-07T16:21:21.630Z,102492.47
2023-02-07T16:23:52.690Z,102489.13
2023-02-07T16:26:20.606Z,102481.91
2023-02-07T16:28:47.381Z,102488.69
2023-02-07T16:31:14.157Z,102492.00
2023-02-07T16:33:40.862Z,102492.16
2023-02-07T16:36:13.351Z,102491.25
2023-02-07T16:38:40.218Z,102492.16
2023-02-07T16:41:07.014Z,102505.13
2023-02-07T16:43:34.897Z,102504.19
2023-02-07T16:46:05.008Z,102515.34
2023-02-07T16:48:32.028Z,102505.53
2023-02-07T16:51:03.315Z,102503.91
2023-02-07T16:53:45.327Z,102495.63
2023-02-07T16:56:32.557Z,102493.81
2023-02-07T16:59:33.871Z,102497.22
2023-02-07T17:02:03.253Z,102488.41
2023-02-07T17:07:43.405Z,102489.06
2023-02-07T17:17:17.043Z,102504.84
2023-02-07T17:19:47.416Z,102501.94
2023-02-07T17:22:19.371Z,102503.28
2023-02-07T17:24:47.693Z,102504.56
2023-02-07T17:27:14.683Z,102500.53
2023-02-07T17:29:44.952Z,102504.50
2023-02-07T17:32:14.325Z,102508.00
2023-02-07T17:34:41.039Z,102509.44
2023-02-07T17:37:09.737Z,102507.56
2023-02-07T17:39:36.773Z,102510.31
2023-02-07T17:42:03.446Z,102523.09
2023-02-07T17:44:30.550Z,102510.31
2023-02-07T17:47:00.653Z,102522.34
2023-02-07T17:49:27.625Z,102524.78
2023-02-07T17:51:54.618Z,102527.78
2023-02-07T17:54:23.258Z,102521.00
2023-02-07T17:56:52.416Z,102514.53
2023-02-07T17:59:22.550Z,102521.63
2023-02-07T18:01:49.206Z,102522.34
2023-02-07T18:04:18.147Z,102526.56
2023-02-07T18:06:49.278Z,102526.09
2023-02-07T18:09:18.176Z,102536.03
2023-02-07T18:11:48.715Z,102544.03
2023-02-07T18:14:15.932Z,102550.63
2023-02-07T18:16:44.831Z,102542.22
2023-02-07T18:19:12.378Z,102553.19
2023-02-07T18:21:45.318Z,102546.59
2023-02-07T18:24:13.271Z,102548.34
2023-02-07T18:26:40.211Z,102544.84
2023-02-07T18:29:07.669Z,102546.81
2023-02-07T18:31:34.875Z,102546.75
2023-02-07T18:34:02.010Z,102549.25
2023-02-07T18:36:35.192Z,102551.91
2023-02-07T18:39:02.032Z,102553.41
2023-02-07T18:41:29.525Z,102553.34
2023-02-07T18:43:58.825Z,102558.38
2023-02-07T18:46:25.809Z,102551.66
2023-02-07T18:48:56.354Z,102546.88
2023-02-07T18:51:26.393Z,102548.66
2023-02-07T18:53:58.072Z,102549.91
2023-02-07T18:56:27.732Z,102561.03
2023-02-07T18:58:57.095Z,102561.78
2023-02-07T19:01:28.001Z,102562.81
2023-02-07T19:03:55.570Z,102565.72
2023-02-07T19:06:23.458Z,102566.56
2023-02-07T19:08:54.095Z,102566.69
2023-02-07T19:11:21.094Z,102569.25
2023-02-07T19:13:49.052Z,102567.78
2023-02-07T19:16:19.021Z,102563.25
2023-02-07T19:18:48.492Z,102558.97
2023-02-07T19:21:16.481Z,102557.09
2023-02-07T19:23:45.701Z,102553.63
2023-02-07T19:26:12.457Z,102549.44
2023-02-07T19:28:39.255Z,102554.53
2023-02-07T19:31:09.976Z,102551.81
2023-02-07T19:33:36.905Z,102559.88
2023-02-07T19:36:07.932Z,102562.88
2023-02-07T19:38:34.675Z,102559.22
2023-02-07T19:41:01.769Z,102564.94
2023-02-07T19:43:28.728Z,102566.97
2023-02-07T19:45:57.712Z,102567.06
2023-02-07T19:48:25.775Z,102572.25
2023-02-07T19:51:02.772Z,102575.13
2023-02-07T19:53:32.112Z,102570.19
2023-02-07T19:56:02.525Z,102570.03
2023-02-07T19:58:29.798Z,102565.56
2023-02-07T20:00:56.851Z,102570.81
2023-02-07T20:03:23.939Z,102564.09
2023-02-07T20:05:50.599Z,102566.31
2023-02-07T20:08:17.297Z,102569.25
2023-02-07T20:10:44.906Z,102577.88
2023-02-07T20:13:13.897Z,102579.81
2023-02-07T20:15:43.669Z,102586.72
2023-02-07T20:18:10.684Z,102586.53
2023-02-07T20:20:43.528Z,102589.66
2023-02-07T20:23:10.802Z,102598.53
2023-02-07T20:25:38.174Z,102599.84
2023-02-07T20:28:05.667Z,102595.63
2023-02-07T20:30:37.085Z,102589.13
2023-02-07T20:33:04.692Z,102597.69
2023-02-07T20:35:34.166Z,102596.53
2023-02-07T20:38:02.697Z,102594.78
2023-02-07T20:40:29.380Z,102596.66
2023-02-07T20:42:56.166Z,102601.69
2023-02-07T20:45:22.761Z,102604.63
2023-02-07T20:47:49.691Z,102607.75
2023-02-07T20:50:19.019Z,102601.69
2023-02-07T20:52:45.726Z,102608.44
2023-02-07T20:55:15.505Z,102607.63
2023-02-07T20:57:44.900Z,102610.59
2023-02-07T21:00:11.836Z,102612.22
2023-02-07T21:02:38.463Z,102614.38
2023-02-07T21:05:05.189Z,102617.00
2023-02-07T21:07:32.039Z,102612.44
2023-02-07T21:09:58.757Z,102613.75
2023-02-07T21:12:27.888Z,102617.03
2023-02-07T21:14:58.985Z,102610.69
2023-02-07T21:17:28.529Z,102620.16
2023-02-07T21:19:55.186Z,102619.25
2023-02-07T21:22:24.041Z,102618.69
2023-02-07T21:24:50.924Z,102630.69
2023-02-07T21:27:17.671Z,102628.34
2023-02-07T21:29:44.742Z,102629.78
2023-02-07T21:32:13.797Z,102638.75
2023-02-07T21:34:42.523Z,102638.00
2023-02-07T21:37:14.333Z,102640.34
2023-02-07T21:39:40.997Z,102639.22
2023-02-07T21:42:09.936Z,102640.50
2023-02-07T21:44:39.072Z,102630.16
2023-02-07T21:47:05.694Z,102632.16
2023-02-07T21:49:32.270Z,102636.72
2023-02-07T21:52:00.811Z,102645.31
2023-02-07T21:54:30.376Z,102638.91
2023-02-07T21:56:57.538Z,102635.34
2023-02-07T21:59:24.145Z,102642.41
2023-02-07T22:01:51.243Z,102638.19
2023-02-07T22:04:20.475Z,102644.41
2023-02-07T22:06:49.080Z,102641.34
2023-02-07T22:09:18.909Z,102635.00
2023-02-07T22:11:45.472Z,102637.75
2023-02-07T22:14:15.893Z,102642.72
2023-02-07T22:16:42.798Z,102642.38
2023-02-07T22:19:13.863Z,102641.84
2023-02-07T22:21:46.290Z,102635.44
2023-02-07T22:24:14.640Z,102641.09
2023-02-07T22:26:41.763Z,102637.25
2023-02-07T22:29:08.626Z,102637.59
2023-02-07T22:31:36.741Z,102646.72
2023-02-07T22:34:07.837Z,102634.34
2023-02-07T22:36:35.394Z,102644.19
2023-02-07T22:39:04.976Z,102635.41
2023-02-07T22:41:31.866Z,102632.50
2023-02-07T22:44:01.491Z,102643.59
2023-02-07T22:46:28.720Z,102637.00
2023-02-07T22:48:58.391Z,102637.03
2023-02-07T22:51:26.560Z,102634.44
2023-02-07T22:53:54.669Z,102642.66
2023-02-07T22:56:24.020Z,102639.94
2023-02-07T22:58:57.566Z,102645.25
2023-02-07T23:01:28.377Z,102643.47
2023-02-07T23:03:55.224Z,102643.09
2023-02-07T23:06:22.395Z,102639.81
2023-02-07T23:08:53.987Z,102643.09
2023-02-07T23:11:21.423Z,102636.72
2023-02-07T23:13:48.697Z,102637.88
2023-02-07T23:16:22.439Z,102635.16
2023-02-07T23:18:49.589Z,102642.47
2023-02-07T23:21:19.480Z,102633.94
2023-02-07T23:23:46.271Z,102635.00
2023-02-07T23:26:14.483Z,102630.84
2023-02-07T23:28:41.266Z,102637.19
2023-02-07T23:31:11.045Z,102634.28
2023-02-07T23:33:40.270Z,102631.38
2023-02-07T23:36:09.405Z,102627.38
2023-02-07T23:38:36.885Z,102637.97
2023-02-07T23:41:03.582Z,102632.16
2023-02-07T23:43:30.731Z,102630.88
2023-02-07T23:45:57.484Z,102633.44
2023-02-07T23:48:29.572Z,102634.53
2023-02-07T23:50:56.953Z,102637.78
2023-02-07T23:53:26.494Z,102644.16
2023-02-07T23:55:54.007Z,102650.16
2023-02-07T23:58:23.410Z,102644.66
